Time;durP1;ratioP1;P1;durP2;ratioP2;P2;SDS_P1;SDS_P2;PMS_P1;PMS_P2;Temp;Humidity;BMP_temperature;BMP_pressure;BME280_temperature;BME280_humidity;BME280_pressure;Samples;Min_cycle;Max_cycle;Signal;HPM_P1;HPM_P2
2021/04/03 00:00:17;;;;;;;11.27;10.15;;;;;;;11.74;76.59;100056.16;4994881;28;20031;-76
2021/04/03 00:02:42;;;;;;;12.63;10.05;;;;;;;11.72;76.71;100044.56;4996941;28;20031;-77
2021/04/03 00:05:10;;;;;;;12.50;10.10;;;;;;;11.54;76.46;100021.97;4999830;28;20547;-76
2021/04/03 00:07:37;;;;;;;10.85;9.02;;;;;;;11.60;76.61;100037.19;4996198;28;20096;-76
2021/04/03 00:10:25;;;;;;;11.00;8.35;;;;;;;11.65;76.62;100038.88;4994597;28;20025;-76
2021/04/03 00:12:51;;;;;;;10.98;9.45;;;;;;;11.57;76.70;100035.16;4995825;28;20105;-76
2021/04/03 00:15:17;;;;;;;12.18;10.75;;;;;;;11.58;77.41;100030.41;4994475;28;20117;-76
2021/04/03 00:17:43;;;;;;;11.57;9.38;;;;;;;11.57;77.23;100026.00;4994947;28;20038;-76
2021/04/03 00:20:13;;;;;;;11.45;10.25;;;;;;;11.66;77.06;100024.53;4994360;28;20497;-76
2021/04/03 00:22:39;;;;;;;13.13;10.55;;;;;;;11.71;76.92;100029.00;4994212;28;20031;-76
2021/04/03 00:25:05;;;;;;;11.32;9.63;;;;;;;11.66;77.15;100026.53;4994223;28;20393;-76
2021/04/03 00:27:31;;;;;;;11.68;10.27;;;;;;;11.58;77.50;100024.81;4978108;28;20129;-76
2021/04/03 00:29:57;;;;;;;10.55;9.48;;;;;;;11.65;77.11;100008.22;4994692;28;20196;-77
2021/04/03 00:32:22;;;;;;;13.95;10.35;;;;;;;11.69;77.68;100015.44;4994343;28;20034;-76
2021/04/03 00:34:48;;;;;;;11.48;10.38;;;;;;;11.62;77.90;100020.91;4993988;28;20481;-76
2021/04/03 00:37:14;;;;;;;10.32;9.27;;;;;;;11.60;78.21;100014.09;4993536;28;20100;-76
2021/04/03 00:39:40;;;;;;;11.50;10.15;;;;;;;11.62;78.21;100017.34;4994829;28;20121;-76
2021/04/03 00:42:32;;;;;;;13.02;9.32;;;;;;;11.65;77.54;100008.22;4994497;28;20507;-76
2021/04/03 00:44:57;;;;;;;10.32;9.32;;;;;;;11.55;78.10;100004.88;4990058;28;20030;-76
2021/04/03 00:47:23;;;;;;;9.40;8.02;;;;;;;11.53;77.49;100000.88;4993752;28;20035;-76
2021/04/03 00:49:48;;;;;;;9.65;8.18;;;;;;;11.53;77.47;99998.88;4993521;28;20018;-76
2021/04/03 00:52:14;;;;;;;9.85;8.90;;;;;;;11.53;76.53;99992.50;4993354;28;20068;-76
2021/04/03 00:54:41;;;;;;;10.40;7.45;;;;;;;11.49;76.58;99991.63;4993971;28;20080;-76
2021/04/03 00:57:07;;;;;;;6.78;6.18;;;;;;;11.51;76.27;99994.88;4994155;28;20030;-76
2021/04/03 00:59:33;;;;;;;7.32;6.63;;;;;;;11.52;75.97;99994.50;4994238;28;20141;-76
2021/04/03 01:01:59;;;;;;;6.60;5.85;;;;;;;11.46;75.68;99986.84;4993882;28;20521;-76
2021/04/03 01:04:24;;;;;;;7.35;5.22;;;;;;;11.48;75.01;99990.84;4993517;28;20362;-76
2021/04/03 01:06:50;;;;;;;6.20;5.22;;;;;;;11.41;74.76;99987.94;4993700;28;20030;-76
2021/04/03 01:09:16;;;;;;;5.20;4.22;;;;;;;11.37;74.35;99978.72;4993467;28;20096;-77
2021/04/03 01:11:54;;;;;;;6.35;4.43;;;;;;;11.27;74.21;99984.91;4993506;28;20066;-76
2021/04/03 01:14:36;;;;;;;4.93;4.45;;;;;;;11.29;74.99;99982.56;4993121;28;20030;-76
2021/04/03 01:17:16;;;;;;;5.30;4.53;;;;;;;11.31;73.68;99974.66;4994181;28;20061;-76
2021/04/03 01:19:50;;;;;;;4.13;3.72;;;;;;;11.29;73.05;99988.13;4994170;28;20089;-76
2021/04/03 01:22:28;;;;;;;5.18;3.40;;;;;;;11.23;72.59;99979.28;4993294;28;20496;-76
2021/04/03 01:25:12;;;;;;;5.85;3.67;;;;;;;11.16;72.69;99979.16;4993234;28;20125;-76
2021/04/03 01:27:52;;;;;;;4.00;3.70;;;;;;;11.08;73.14;99968.25;4993681;28;20060;-76
2021/04/03 01:30:22;;;;;;;4.63;4.18;;;;;;;11.07;73.21;99970.25;4993200;28;20026;-76
2021/04/03 01:32:48;;;;;;;3.35;3.13;;;;;;;11.08;72.86;99971.06;4994046;28;20433;-76
2021/04/03 01:35:38;;;;;;;3.92;3.50;;;;;;;11.12;72.37;99967.16;4993687;28;20177;-76
2021/04/03 01:38:11;;;;;;;5.28;3.97;;;;;;;11.06;72.53;99973.41;4992500;28;20061;-76
2021/04/03 01:40:38;;;;;;;3.83;3.20;;;;;;;10.87;72.75;99955.59;4993701;28;20177;-76
2021/04/03 01:43:11;;;;;;;5.45;4.00;;;;;;;10.88;72.78;99957.22;4994414;28;20018;-76
2021/04/03 01:45:40;;;;;;;3.75;3.45;;;;;;;10.90;73.11;99965.97;4993006;28;20096;-76
2021/04/03 01:48:07;;;;;;;4.43;3.95;;;;;;;10.90;73.32;99965.19;4994580;28;20031;-76
2021/04/03 01:50:34;;;;;;;4.32;3.92;;;;;;;10.95;73.75;99968.47;4994816;28;20042;-76
2021/04/03 01:53:02;;;;;;;4.53;4.05;;;;;;;10.94;74.10;99961.28;4993254;28;20354;-76
2021/04/03 01:55:28;;;;;;;4.63;3.95;;;;;;;10.96;73.42;99964.50;4994216;28;20092;-76
2021/04/03 01:57:55;;;;;;;4.90;4.22;;;;;;;11.07;73.65;99972.22;4993557;28;20026;-76
2021/04/03 02:00:23;;;;;;;5.93;4.07;;;;;;;10.94;73.85;99958.50;4993251;28;20058;-77
2021/04/03 02:02:51;;;;;;;5.03;3.88;;;;;;;10.96;74.15;99964.50;4997165;28;20027;-76
2021/04/03 02:05:17;;;;;;;4.55;4.15;;;;;;;10.98;74.10;99964.94;4997672;28;20046;-76
2021/04/03 02:07:44;;;;;;;4.88;4.45;;;;;;;10.92;74.97;99952.50;4980629;28;20117;-76
2021/04/03 02:10:13;;;;;;;5.43;4.93;;;;;;;10.92;74.91;99952.50;4997068;28;20449;-76
2021/04/03 02:12:40;;;;;;;9.57;8.02;;;;;;;10.87;74.85;99950.03;4997990;28;20050;-76
2021/04/03 02:15:10;;;;;;;20.13;16.98;;;;;;;10.86;75.20;99948.41;4997072;28;20469;-76
2021/04/03 02:17:37;;;;;;;37.67;29.75;;;;;;;10.92;74.17;99952.50;4997184;28;20346;-77
2021/04/03 02:20:08;;;;;;;46.50;36.03;;;;;;;10.83;74.83;99943.59;4996588;28;20068;-76
2021/04/03 02:22:34;;;;;;;40.80;34.90;;;;;;;10.88;74.30;99954.41;4997235;28;20092;-76
2021/04/03 02:25:06;;;;;;;18.80;16.60;;;;;;;10.93;74.28;99956.09;4997872;28;20468;-77
2021/04/03 02:27:31;;;;;;;10.18;8.75;;;;;;;10.90;74.11;99949.28;5001156;28;20058;-77
2021/04/03 02:29:57;;;;;;;14.05;10.35;;;;;;;10.82;74.69;99961.47;5000873;28;20061;-76
2021/04/03 02:32:23;;;;;;;13.30;11.85;;;;;;;10.83;75.08;99949.16;4996968;28;20115;-76
2021/04/03 02:34:48;;;;;;;16.75;13.13;;;;;;;10.79;75.44;99937.16;4996699;28;20493;-76
2021/04/03 02:37:14;;;;;;;31.33;26.42;;;;;;;10.81;75.49;99951.50;4995780;28;20043;-76
2021/04/03 02:39:41;;;;;;;28.00;21.98;;;;;;;10.92;75.85;99941.38;4996225;28;20035;-76
2021/04/03 02:42:16;;;;;;;21.95;19.23;;;;;;;10.82;75.71;99942.00;4996156;28;20027;-75
2021/04/03 02:44:50;;;;;;;19.10;17.17;;;;;;;10.93;75.46;99942.97;4997964;28;20401;-76
2021/04/03 02:47:26;;;;;;;14.82;13.32;;;;;;;10.88;75.65;99934.13;4996278;28;20031;-75
2021/04/03 02:49:57;;;;;;;28.65;25.90;;;;;;;10.85;75.74;99932.88;4996590;28;20018;-76
2021/04/03 02:52:25;;;;;;;34.33;30.98;;;;;;;10.82;75.82;99925.28;4995971;28;20125;-76
2021/04/03 02:54:51;;;;;;;27.70;24.60;;;;;;;10.77;76.81;99933.16;4997258;28;20062;-76
2021/04/03 02:57:18;;;;;;;30.17;26.98;;;;;;;10.71;76.29;99930.66;4996494;28;20027;-76
2021/04/03 02:59:47;;;;;;;27.10;21.60;;;;;;;10.73;76.18;99933.06;4996311;28;20097;-75
2021/04/03 03:02:18;;;;;;;13.23;11.27;;;;;;;10.82;75.96;99925.28;4997259;28;20101;-75
2021/04/03 03:04:45;;;;;;;13.82;12.43;;;;;;;10.73;76.77;99922.75;4998505;28;20092;-75
2021/04/03 03:07:12;;;;;;;23.90;19.23;;;;;;;10.75;77.05;99914.03;4997237;28;20054;-75
2021/04/03 03:09:41;;;;;;;21.52;15.68;;;;;;;10.78;76.75;99918.84;4995674;28;20125;-76
2021/04/03 03:12:09;;;;;;;14.43;12.90;;;;;;;10.65;76.20;99915.47;4996183;28;20089;-76
2021/04/03 03:14:36;;;;;;;12.13;10.90;;;;;;;10.59;76.57;99907.75;4996415;28;20033;-76
2021/04/03 03:17:02;;;;;;;13.88;11.25;;;;;;;10.57;76.65;99907.34;4995854;28;20470;-76
2021/04/03 03:19:28;;;;;;;16.88;13.35;;;;;;;10.53;77.20;99907.25;4996987;28;20031;-76
2021/04/03 03:21:54;;;;;;;16.17;14.52;;;;;;;10.56;77.46;99914.09;4995692;28;20388;-75
2021/04/03 03:24:20;;;;;;;16.52;14.25;;;;;;;10.55;77.20;99920.81;4995431;28;20026;-76
2021/04/03 03:26:46;;;;;;;16.02;10.93;;;;;;;10.58;77.44;99920.88;4995535;28;20358;-76
2021/04/03 03:29:12;;;;;;;9.10;7.18;;;;;;;10.58;77.96;99917.28;4995341;28;20029;-76
2021/04/03 03:31:39;;;;;;;7.13;6.43;;;;;;;10.59;77.91;99921.69;4996836;28;20057;-75
2021/04/03 03:34:05;;;;;;;7.38;6.68;;;;;;;10.59;77.77;99905.78;4996524;28;20030;-76
2021/04/03 03:36:34;;;;;;;7.40;6.53;;;;;;;10.67;77.20;99924.22;4996063;28;20126;-75
2021/04/03 03:39:00;;;;;;;7.53;6.00;;;;;;;10.63;77.88;99914.19;4995440;28;20477;-76
2021/04/03 03:41:27;;;;;;;22.05;15.30;;;;;;;10.63;77.56;99914.19;4979398;28;20049;-76
2021/04/03 03:43:53;;;;;;;29.40;22.50;;;;;;;10.54;77.51;99910.84;4995068;28;20117;-76
2021/04/03 03:46:18;;;;;;;22.83;19.17;;;;;;;10.65;77.02;99914.63;4995268;28;20121;-76
2021/04/03 03:48:44;;;;;;;18.30;16.00;;;;;;;10.54;77.02;99908.06;4994994;28;20117;-76
2021/04/03 03:51:11;;;;;;;15.02;12.80;;;;;;;10.57;76.65;99885.09;4995335;28;20071;-76
2021/04/03 03:53:36;;;;;;;23.38;15.85;;;;;;;10.51;76.89;99897.69;4994901;28;20117;-76
2021/04/03 03:56:03;;;;;;;23.77;19.38;;;;;;;10.53;77.05;99896.13;4994847;28;20173;-76
2021/04/03 03:58:28;;;;;;;17.42;14.95;;;;;;;10.55;77.44;99893.81;4996592;28;20105;-76
2021/04/03 04:00:54;;;;;;;21.73;14.52;;;;;;;10.34;77.13;99866.41;4995074;28;20429;-76
2021/04/03 04:03:20;;;;;;;23.75;17.20;;;;;;;10.42;77.58;99898.72;4994686;28;20037;-76
2021/04/03 04:05:45;;;;;;;21.90;17.23;;;;;;;10.37;77.65;99896.25;4994545;28;20030;-76
2021/04/03 04:08:11;;;;;;;18.83;13.25;;;;;;;10.33;77.74;99895.34;4994622;28;20030;-76
2021/04/03 04:10:37;;;;;;;14.15;9.27;;;;;;;10.37;77.53;99899.03;4994515;28;20038;-76
2021/04/03 04:13:03;;;;;;;13.75;8.07;;;;;;;10.25;77.88;99901.97;4994530;28;20029;-76
2021/04/03 04:15:28;;;;;;;15.68;6.18;;;;;;;10.19;78.28;99892.28;4995786;28;20034;-75
2021/04/03 04:17:54;;;;;;;7.03;6.32;;;;;;;10.20;78.07;99905.00;4994399;28;20036;-76
2021/04/03 04:20:19;;;;;;;6.80;6.10;;;;;;;9.97;78.41;99896.63;4994639;28;20058;-76
2021/04/03 04:22:45;;;;;;;6.85;5.05;;;;;;;10.16;76.39;99887.44;4994315;28;20084;-76
2021/04/03 04:25:11;;;;;;;8.00;5.30;;;;;;;10.08;77.20;99896.84;4993550;28;20089;-76
2021/04/03 04:27:37;;;;;;;9.20;4.82;;;;;;;10.10;76.90;99875.81;4994605;28;20488;-76
2021/04/03 04:30:09;;;;;;;5.45;4.95;;;;;;;10.13;76.75;99883.44;4994459;28;20036;-76
2021/04/03 04:32:40;;;;;;;6.80;5.05;;;;;;;9.93;77.02;99867.94;4994155;28;20121;-76
2021/04/03 04:35:08;;;;;;;6.35;5.18;;;;;;;9.85;78.05;99868.97;4994397;28;20088;-76
2021/04/03 04:37:34;;;;;;;5.05;4.53;;;;;;;9.98;78.04;99887.91;4995189;28;20073;-75
2021/04/03 04:40:00;;;;;;;6.63;6.03;;;;;;;9.90;78.62;99882.56;4994853;28;20022;-76
2021/04/03 04:42:25;;;;;;;6.60;6.00;;;;;;;9.84;77.90;99864.56;4993921;28;20524;-75
2021/04/03 04:44:51;;;;;;;6.63;6.00;;;;;;;9.93;77.54;99885.41;4993965;28;20037;-75
2021/04/03 04:47:17;;;;;;;8.48;7.13;;;;;;;10.00;77.38;99868.06;4994130;28;20037;-75
2021/04/03 04:49:43;;;;;;;21.30;16.58;;;;;;;10.08;75.99;99885.72;4996121;28;20034;-76
2021/04/03 04:52:09;;;;;;;12.10;10.43;;;;;;;10.03;76.69;99895.16;4998515;28;20038;-76
2021/04/03 04:54:34;;;;;;;10.85;8.93;;;;;;;10.05;77.15;99897.56;4995322;28;20033;-75
2021/04/03 04:57:00;;;;;;;10.60;9.30;;;;;;;10.13;77.30;99893.75;4994205;28;20093;-74
2021/04/03 04:59:25;;;;;;;10.40;9.35;;;;;;;10.21;77.12;99878.81;4994002;28;20034;-75
2021/04/03 05:01:51;;;;;;;10.25;9.00;;;;;;;10.36;76.91;99891.84;4994275;28;20393;-75
2021/04/03 05:04:16;;;;;;;11.50;10.35;;;;;;;10.78;76.03;99882.69;4993881;28;20057;-75
2021/04/03 05:06:42;;;;;;;11.57;10.52;;;;;;;11.22;73.77;99884.97;4994024;28;20374;-76
2021/04/03 05:09:07;;;;;;;14.68;10.48;;;;;;;11.54;72.07;99877.09;4993771;28;20067;-76
2021/04/03 05:11:33;;;;;;;10.48;8.85;;;;;;;11.77;71.66;99851.91;4994037;28;20034;-75
2021/04/03 05:13:58;;;;;;;12.55;9.68;;;;;;;12.25;70.21;99874.41;4993465;28;20121;-75
2021/04/03 05:16:24;;;;;;;9.30;8.20;;;;;;;12.64;67.99;99874.03;4993485;28;20062;-75
2021/04/03 05:18:49;;;;;;;9.10;7.47;;;;;;;12.95;66.98;99870.72;4993388;28;20038;-77
2021/04/03 05:21:15;;;;;;;10.35;7.03;;;;;;;13.34;65.93;99865.44;4993362;28;20026;-75
2021/04/03 05:23:40;;;;;;;9.85;7.82;;;;;;;13.79;64.04;99884.88;4993945;28;20026;-76
2021/04/03 05:26:06;;;;;;;12.20;7.63;;;;;;;13.62;62.71;99876.00;4993266;28;20027;-76
2021/04/03 05:28:31;;;;;;;7.43;6.15;;;;;;;13.86;61.92;99857.75;4993539;28;20045;-75
2021/04/03 05:30:57;;;;;;;9.90;7.88;;;;;;;13.89;62.40;99873.72;4993576;28;20026;-76
2021/04/03 05:33:23;;;;;;;12.40;10.88;;;;;;;14.19;61.15;99874.66;4993191;28;20056;-75
2021/04/03 05:35:49;;;;;;;11.57;9.60;;;;;;;14.72;60.88;99879.59;4993038;28;20042;-75
2021/04/03 05:38:14;;;;;;;11.50;9.48;;;;;;;15.03;59.76;99878.03;4991780;28;20065;-76
2021/04/03 05:40:40;;;;;;;10.77;9.02;;;;;;;15.58;58.40;99878.34;4992358;28;20085;-76
2021/04/03 05:43:05;;;;;;;10.95;9.85;;;;;;;15.92;57.77;99872.25;4992349;28;20030;-76
2021/04/03 05:45:36;;;;;;;12.27;9.80;;;;;;;16.27;56.62;99864.91;4993113;28;20114;-77
2021/04/03 05:48:03;;;;;;;15.48;11.65;;;;;;;16.63;54.12;99857.06;4992281;28;20034;-76
2021/04/03 05:50:29;;;;;;;13.25;11.88;;;;;;;16.81;53.95;99877.41;4993779;28;20485;-76
2021/04/03 05:52:55;;;;;;;13.93;12.52;;;;;;;16.36;56.86;99884.91;4992534;28;20069;-76
2021/04/03 05:55:22;;;;;;;14.50;12.07;;;;;;;17.05;54.39;99881.25;4992769;28;20030;-77
2021/04/03 05:57:47;;;;;;;12.43;10.93;;;;;;;17.44;54.39;99880.88;4992748;28;20377;-76
2021/04/03 06:00:14;;;;;;;13.52;11.00;;;;;;;17.69;52.63;99882.66;4992422;28;20034;-76
2021/04/03 06:03:06;;;;;;;12.00;10.82;;;;;;;18.06;51.58;99887.47;4993638;28;20038;-77
2021/04/03 06:05:31;;;;;;;13.45;11.30;;;;;;;17.86;50.91;99883.69;4992029;28;20034;-77
2021/04/03 06:07:57;;;;;;;15.60;12.50;;;;;;;18.02;51.16;99886.72;4992502;28;20088;-77
2021/04/03 06:10:22;;;;;;;14.82;12.32;;;;;;;18.61;49.51;99889.16;4991962;28;20440;-79
2021/04/03 06:12:49;;;;;;;14.68;12.82;;;;;;;17.71;51.92;99880.22;4993261;28;20034;-77
2021/04/03 06:15:25;;;;;;;14.25;12.82;;;;;;;17.66;52.11;99883.47;4993175;28;20030;-77
2021/04/03 06:17:57;;;;;;;19.05;16.75;;;;;;;17.71;50.89;99869.75;4991859;28;20045;-77
2021/04/03 06:20:48;;;;;;;16.77;12.10;;;;;;;17.94;52.20;99885.19;4991812;28;20085;-77
2021/04/03 06:23:14;;;;;;;13.55;11.40;;;;;;;17.36;53.25;99875.72;4989919;28;20042;-77
2021/04/03 06:25:54;;;;;;;12.20;10.55;;;;;;;17.94;52.26;99879.56;4991121;28;20030;-78
2021/04/03 06:28:31;;;;;;;12.82;11.48;;;;;;;18.57;50.93;99882.75;4993099;28;20030;-77
2021/04/03 06:31:13;;;;;;;12.18;10.20;;;;;;;19.13;49.36;99877.50;4992688;28;20033;-78
2021/04/03 06:33:39;;;;;;;11.52;10.10;;;;;;;19.39;48.35;99878.66;4991614;28;20118;-78
2021/04/03 06:36:10;;;;;;;12.57;11.02;;;;;;;19.96;46.93;99879.59;4991845;28;20065;-78
2021/04/03 06:38:37;;;;;;;12.05;10.85;;;;;;;19.46;48.33;99880.53;4964420;28;862506;-78
2021/04/03 06:41:23;;;;;;;15.63;11.13;;;;;;;19.23;49.02;99879.34;4992720;28;20132;-78
2021/04/03 06:44:18;;;;;;;11.48;10.48;;;;;;;19.58;47.08;99891.19;4994080;28;20085;-78
2021/04/03 06:46:46;;;;;;;10.68;9.70;;;;;;;19.51;48.70;99869.56;4975728;28;20113;-78
2021/04/03 06:49:13;;;;;;;12.00;10.73;;;;;;;19.63;48.43;99856.88;4994111;28;20080;-78
2021/04/03 06:51:39;;;;;;;12.90;11.60;;;;;;;19.88;47.90;99881.78;4996804;28;20026;-78
2021/04/03 06:54:07;;;;;;;11.68;10.48;;;;;;;19.51;48.70;99885.69;4995631;28;20026;-73
2021/04/03 06:56:34;;;;;;;9.90;9.00;;;;;;;19.36;49.10;99879.50;4995683;28;20068;-74
2021/04/03 06:59:10;;;;;;;9.90;9.00;;;;;;;19.80;47.76;99869.81;4997248;28;20030;-73
2021/04/03 07:01:57;;;;;;;9.07;8.18;;;;;;;18.90;49.96;99824.69;4996790;28;20027;-73
2021/04/03 07:04:37;;;;;;;9.40;8.35;;;;;;;19.33;49.02;99869.91;4996385;28;20041;-73
2021/04/03 07:07:03;;;;;;;10.65;9.55;;;;;;;19.71;48.35;99861.16;4996305;28;20026;-73
2021/04/03 07:09:30;;;;;;;11.75;10.10;;;;;;;19.21;49.52;99864.06;4987957;28;20068;-73
2021/04/03 07:11:57;;;;;;;12.35;11.25;;;;;;;19.24;49.83;99871.66;4988121;28;20117;-74
2021/04/03 07:14:26;;;;;;;12.00;10.15;;;;;;;20.18;48.59;99863.00;4997112;28;20046;-73
2021/04/03 07:16:52;;;;;;;11.52;9.43;;;;;;;19.91;48.08;99869.63;4979202;28;20030;-72
2021/04/03 07:19:21;;;;;;;9.95;9.05;;;;;;;20.27;47.99;99866.06;4979260;28;20045;-73
2021/04/03 07:21:47;;;;;;;10.00;8.82;;;;;;;20.59;46.47;99859.72;4979213;28;20030;-73
2021/04/03 07:24:16;;;;;;;12.27;10.25;;;;;;;20.33;46.37;99858.66;4978710;28;20038;-74
2021/04/03 07:26:44;;;;;;;11.63;9.57;;;;;;;20.45;46.75;99860.00;4978920;28;20425;-72
2021/04/03 07:29:38;;;;;;;13.25;9.40;;;;;;;20.75;45.87;99856.91;4978778;28;20459;-73
2021/04/03 07:32:05;;;;;;;12.00;7.70;;;;;;;20.75;46.64;99861.75;4978203;28;20088;-74
2021/04/03 07:34:40;;;;;;;8.90;8.10;;;;;;;21.43;45.08;99861.69;4978689;28;20034;-73
2021/04/03 07:37:10;;;;;;;10.68;9.45;;;;;;;21.41;44.08;99869.00;4977744;28;20070;-74
2021/04/03 07:39:38;;;;;;;6.68;5.97;;;;;;;20.77;46.17;99853.63;4977921;28;20117;-79
2021/04/03 07:42:04;;;;;;;5.75;4.50;;;;;;;21.46;44.30;99862.81;4996438;28;20042;-79
2021/04/03 07:44:35;;;;;;;7.20;6.32;;;;;;;21.64;44.61;99860.31;4978344;28;20034;-77
2021/04/03 07:47:23;;;;;;;8.10;6.65;;;;;;;21.00;44.92;99850.66;4978417;28;20500;-74
2021/04/03 07:49:49;;;;;;;8.40;6.43;;;;;;;21.24;44.74;99858.94;4995689;28;20110;-78
2021/04/03 07:52:17;;;;;;;6.57;6.00;;;;;;;21.52;43.22;99844.06;4961883;28;20065;-84
2021/04/03 07:54:45;;;;;;;8.57;6.65;;;;;;;21.54;43.38;99833.09;4995719;28;20037;-77
2021/04/03 07:57:11;;;;;;;6.47;5.85;;;;;;;22.21;42.59;99852.22;4978206;28;20031;-75
2021/04/03 07:59:42;;;;;;;7.70;6.90;;;;;;;22.07;42.37;99829.97;4977922;28;20033;-82
2021/04/03 08:02:12;;;;;;;7.45;5.90;;;;;;;21.91;41.76;99845.78;4977888;28;20103;-76
2021/04/03 08:04:38;;;;;;;9.18;5.85;;;;;;;22.52;40.73;99849.66;4977733;28;20084;-77
2021/04/03 08:07:03;;;;;;;7.25;6.55;;;;;;;22.63;40.14;99857.81;4995408;28;20069;-73
2021/04/03 08:09:33;;;;;;;8.07;7.22;;;;;;;21.78;41.93;99861.94;4995554;28;20026;-75
2021/04/03 08:12:00;;;;;;;9.93;7.10;;;;;;;21.82;41.98;99856.19;4977801;28;20046;-75
2021/04/03 08:14:28;;;;;;;8.82;6.63;;;;;;;21.64;43.27;99868.00;4995246;28;20026;-74
2021/04/03 08:16:55;;;;;;;7.63;6.75;;;;;;;21.48;42.44;99862.38;4977604;28;20041;-74
2021/04/03 08:19:25;;;;;;;9.15;8.02;;;;;;;20.46;44.32;99853.97;4978200;28;20053;-76
2021/04/03 08:21:50;;;;;;;10.55;7.78;;;;;;;19.80;46.68;99827.47;4995340;28;20121;-75
2021/04/03 08:24:21;;;;;;;11.27;10.05;;;;;;;18.79;48.44;99850.22;4978252;28;20509;-78
2021/04/03 08:26:48;;;;;;;14.95;9.70;;;;;;;18.93;48.70;99852.03;4995038;28;20022;-78
2021/04/03 08:29:34;;;;;;;13.40;8.73;;;;;;;19.56;47.92;99851.34;4978290;28;20113;-78
2021/04/03 08:32:01;;;;;;;12.20;10.45;;;;;;;18.94;48.69;99850.00;4977856;28;20386;-76
2021/04/03 08:34:28;;;;;;;11.63;9.02;;;;;;;18.90;48.65;99857.72;4977892;28;20427;-77
2021/04/03 08:36:54;;;;;;;11.35;9.55;;;;;;;18.20;50.80;99849.88;4994717;28;20054;-73
2021/04/03 08:39:22;;;;;;;13.15;10.40;;;;;;;18.18;51.05;99850.31;4977587;28;20022;-75
2021/04/03 08:41:50;;;;;;;11.93;10.30;;;;;;;17.88;51.69;99841.84;4977777;28;20030;-75
2021/04/03 08:44:26;;;;;;;12.80;10.60;;;;;;;17.70;52.68;99837.22;4977869;28;20031;-75
2021/04/03 08:46:54;;;;;;;11.73;10.45;;;;;;;18.04;51.78;99837.22;4977651;28;20129;-75
2021/04/03 08:49:46;;;;;;;17.65;10.73;;;;;;;17.97;52.31;99828.06;4995949;28;20504;-75
2021/04/03 08:52:12;;;;;;;14.73;11.25;;;;;;;17.58;53.42;99825.69;4975186;28;20458;-77
2021/04/03 08:54:40;;;;;;;11.98;10.80;;;;;;;17.68;52.46;99821.94;4995870;28;20065;-76
2021/04/03 08:57:24;;;;;;;15.57;12.02;;;;;;;16.93;54.61;99817.09;4978276;28;20037;-76
2021/04/03 08:59:50;;;;;;;13.85;10.50;;;;;;;17.24;53.95;99810.38;4978900;28;20091;-76
2021/04/03 09:02:16;;;;;;;11.73;10.07;;;;;;;16.76;54.02;99802.78;4978124;28;20113;-76
2021/04/03 09:04:42;;;;;;;20.10;12.13;;;;;;;16.77;54.66;99804.38;4995166;28;20078;-76
2021/04/03 09:07:08;;;;;;;11.85;10.52;;;;;;;16.79;52.78;99806.00;4977479;28;20030;-79
2021/04/03 09:09:33;;;;;;;14.35;9.75;;;;;;;16.94;52.80;99804.66;4994235;28;20030;-75
2021/04/03 09:12:04;;;;;;;13.02;8.65;;;;;;;17.60;51.52;99801.56;4977482;28;20034;-76
2021/04/03 09:14:31;;;;;;;12.90;9.20;;;;;;;17.31;51.40;99766.53;4977553;28;20026;-77
2021/04/03 09:16:57;;;;;;;10.27;7.07;;;;;;;17.06;49.06;99776.03;4994986;28;20038;-77
2021/04/03 09:19:28;;;;;;;10.88;8.75;;;;;;;17.24;49.47;99787.88;4977550;28;20121;-77
2021/04/03 09:21:55;;;;;;;9.23;7.30;;;;;;;18.32;47.35;99807.88;4977180;28;20046;-74
2021/04/03 09:24:57;;;;;;;8.27;6.82;;;;;;;18.69;44.14;99794.84;4987948;28;20022;-80
2021/04/03 09:27:23;;;;;;;9.93;6.35;;;;;;;18.94;42.84;99802.09;4963260;28;20128;-82
2021/04/03 09:29:55;;;;;;;5.85;5.20;;;;;;;19.15;41.30;99793.25;4977572;28;20092;-79
2021/04/03 09:32:21;;;;;;;7.20;5.75;;;;;;;19.14;41.05;99791.66;4977485;28;20034;-77
2021/04/03 09:34:46;;;;;;;8.23;5.90;;;;;;;19.62;41.38;99790.38;4976780;28;20473;-85
2021/04/03 09:37:20;;;;;;;9.63;6.53;;;;;;;19.58;42.51;99778.31;4973449;28;20043;-81
2021/04/03 09:39:47;;;;;;;8.93;6.75;;;;;;;19.96;42.09;99783.59;4973834;28;20037;-75
2021/04/03 09:42:15;;;;;;;9.90;7.55;;;;;;;19.54;43.45;99783.25;4973770;28;20098;-77
2021/04/03 09:44:40;;;;;;;8.82;7.82;;;;;;;20.29;41.89;99785.25;4973472;28;20031;-74
2021/04/03 09:47:06;;;;;;;14.23;11.15;;;;;;;20.31;41.38;99784.84;4973726;28;20496;-77
2021/04/03 09:49:33;;;;;;;10.18;7.05;;;;;;;20.60;40.43;99776.50;4976326;28;20044;-76
2021/04/03 09:51:59;;;;;;;12.88;8.23;;;;;;;20.57;40.99;99766.91;4975052;28;20106;-80
2021/04/03 09:54:25;;;;;;;22.17;13.95;;;;;;;20.98;40.37;99776.75;4972796;28;20038;-79
2021/04/03 09:56:50;;;;;;;8.05;7.22;;;;;;;21.31;39.21;99768.25;4989291;28;20085;-84
2021/04/03 09:59:16;;;;;;;11.20;7.82;;;;;;;20.76;40.75;99773.69;4973257;28;20058;-78
2021/04/03 10:01:42;;;;;;;8.48;6.90;;;;;;;19.93;41.17;99756.28;4975592;28;20462;-78
2021/04/03 10:04:07;;;;;;;7.35;6.65;;;;;;;19.80;41.98;99767.41;4975026;28;20089;-79
2021/04/03 10:06:33;;;;;;;9.45;7.20;;;;;;;19.97;41.98;99762.59;4976375;28;20035;-81
2021/04/03 10:08:59;;;;;;;10.35;7.85;;;;;;;20.13;41.85;99757.00;4982182;28;20074;-78
2021/04/03 10:11:25;;;;;;;10.13;8.00;;;;;;;19.56;42.07;99756.19;4973466;28;20478;-78
2021/04/03 10:13:51;;;;;;;12.95;9.65;;;;;;;19.17;42.74;99745.66;4973503;28;20034;-77
2021/04/03 10:16:16;;;;;;;12.07;8.65;;;;;;;18.89;43.04;99746.22;4973622;28;20031;-79
2021/04/03 10:18:42;;;;;;;10.50;7.22;;;;;;;18.67;43.60;99751.41;4975378;28;20386;-75
2021/04/03 10:21:09;;;;;;;10.63;7.00;;;;;;;18.76;43.40;99738.38;4974070;28;20110;-75
2021/04/03 10:23:34;;;;;;;11.82;7.03;;;;;;;18.69;43.87;99738.47;4975192;28;20497;-74
2021/04/03 10:26:00;;;;;;;10.15;7.22;;;;;;;18.30;44.08;99744.75;4976803;28;20031;-74
2021/04/03 10:28:26;;;;;;;115.55;59.17;;;;;;;18.19;44.06;99716.75;4977836;28;20026;-74
2021/04/03 10:30:52;;;;;;;36.78;19.83;;;;;;;18.18;43.82;99734.88;4993146;28;20367;-74
2021/04/03 10:33:17;;;;;;;176.98;52.03;;;;;;;18.07;43.14;99742.69;4993149;28;20050;-74
2021/04/03 10:35:43;;;;;;;167.23;45.38;;;;;;;18.12;43.29;99738.59;4992692;28;20058;-75
2021/04/03 10:38:09;;;;;;;67.55;22.65;;;;;;;18.29;43.07;99741.13;4992390;28;20051;-74
2021/04/03 10:40:35;;;;;;;16.55;9.95;;;;;;;18.14;42.88;99742.56;4976823;28;20039;-74
2021/04/03 10:43:01;;;;;;;10.68;7.97;;;;;;;18.17;43.31;99741.72;4976790;28;20124;-73
2021/04/03 10:45:26;;;;;;;11.10;7.65;;;;;;;18.35;43.24;99735.81;4976054;28;20031;-74
2021/04/03 10:47:52;;;;;;;11.85;8.57;;;;;;;18.31;42.93;99732.25;4976666;28;20030;-72
2021/04/03 10:50:18;;;;;;;17.65;9.65;;;;;;;18.50;42.45;99739.19;4976845;28;20379;-74
2021/04/03 10:52:44;;;;;;;44.17;19.13;;;;;;;18.50;42.51;99733.56;4977800;28;20038;-75
2021/04/03 10:55:10;;;;;;;11.98;8.30;;;;;;;18.26;42.61;99744.78;4976240;28;20113;-71
2021/04/03 10:57:36;;;;;;;67.18;23.10;;;;;;;18.22;42.68;99749.69;4975467;28;20171;-73
2021/04/03 11:00:03;;;;;;;22.73;12.52;;;;;;;18.14;43.06;99750.22;4992203;28;20117;-73
2021/04/03 11:02:28;;;;;;;14.43;7.70;;;;;;;18.11;42.98;99748.25;4977747;28;20031;-73
2021/04/03 11:04:54;;;;;;;13.90;8.38;;;;;;;18.23;42.52;99754.09;4975537;28;20481;-73
2021/04/03 11:07:19;;;;;;;10.95;7.43;;;;;;;18.38;42.84;99753.91;4986051;28;20031;-79
2021/04/03 11:09:45;;;;;;;13.85;8.40;;;;;;;18.22;44.06;99749.69;4985636;28;20034;-82
2021/04/03 11:12:11;;;;;;;21.50;9.18;;;;;;;18.29;44.43;99738.31;4975594;28;20037;-81
2021/04/03 11:14:37;;;;;;;10.45;8.10;;;;;;;18.53;47.09;99741.94;4975601;28;20089;-80
2021/04/03 11:17:03;;;;;;;18.25;7.85;;;;;;;18.82;47.63;99738.69;4975532;28;20031;-79
2021/04/03 11:19:28;;;;;;;8.95;7.75;;;;;;;18.74;47.99;99734.38;4975739;28;20442;-79
2021/04/03 11:21:54;;;;;;;12.02;7.13;;;;;;;18.87;48.12;99737.41;4976067;28;20126;-84
2021/04/03 11:24:20;;;;;;;7.47;6.55;;;;;;;18.98;47.73;99724.69;4977355;28;20419;-83
2021/04/03 11:26:45;;;;;;;9.77;7.40;;;;;;;19.02;47.47;99716.19;4975420;28;20417;-83
2021/04/03 11:29:11;;;;;;;9.95;7.53;;;;;;;18.95;47.18;99721.94;4975000;28;20034;-79